sensor_id;sensor_type;location;lat;lon;timestamp;temperature;humidity
75824;DHT22;64457;51.976;9.834;2023-02-11T00:02:00;8.60;94.30
75824;DHT22;64457;51.976;9.834;2023-02-11T00:04:29;8.60;94.40
75824;DHT22;64457;51.976;9.834;2023-02-11T00:06:57;8.60;94.60
75824;DHT22;64457;51.976;9.834;2023-02-11T00:09:24;8.60;94.30
75824;DHT22;64457;51.976;9.834;2023-02-11T00:11:52;8.60;94.50
75824;DHT22;64457;51.976;9.834;2023-02-11T00:14:21;8.60;94.60
75824;DHT22;64457;51.976;9.834;2023-02-11T00:16:48;8.70;94.60
75824;DHT22;64457;51.976;9.834;2023-02-11T00:19:16;8.80;94.80
75824;DHT22;64457;51.976;9.834;2023-02-11T00:21:43;8.90;94.40
75824;DHT22;64457;51.976;9.834;2023-02-11T00:24:11;9.00;94.40
75824;DHT22;64457;51.976;9.834;2023-02-11T00:26:38;8.80;94.30
75824;DHT22;64457;51.976;9.834;2023-02-11T00:29:06;8.70;94.80
75824;DHT22;64457;51.976;9.834;2023-02-11T00:31:35;9.00;94.70
75824;DHT22;64457;51.976;9.834;2023-02-11T00:34:02;9.10;94.50
75824;DHT22;64457;51.976;9.834;2023-02-11T00:36:30;9.10;94.80
75824;DHT22;64457;51.976;9.834;2023-02-11T00:38:58;9.20;94.30
75824;DHT22;64457;51.976;9.834;2023-02-11T00:41:26;9.20;94.70
75824;DHT22;64457;51.976;9.834;2023-02-11T00:43:54;9.00;94.60
75824;DHT22;64457;51.976;9.834;2023-02-11T00:46:22;9.00;94.60
75824;DHT22;64457;51.976;9.834;2023-02-11T00:48:51;8.80;95.20
75824;DHT22;64457;51.976;9.834;2023-02-11T00:51:22;9.10;95.10
75824;DHT22;64457;51.976;9.834;2023-02-11T00:53:50;9.20;94.60
75824;DHT22;64457;51.976;9.834;2023-02-11T00:56:17;9.00;94.50
75824;DHT22;64457;51.976;9.834;2023-02-11T00:58:45;9.10;94.70
75824;DHT22;64457;51.976;9.834;2023-02-11T01:01:12;9.10;94.70
75824;DHT22;64457;51.976;9.834;2023-02-11T01:03:40;9.20;94.80
75824;DHT22;64457;51.976;9.834;2023-02-11T01:06:09;9.40;94.70
75824;DHT22;64457;51.976;9.834;2023-02-11T01:08:37;9.60;94.60
75824;DHT22;64457;51.976;9.834;2023-02-11T01:11:09;9.70;94.00
75824;DHT22;64457;51.976;9.834;2023-02-11T01:13:39;9.40;94.60
75824;DHT22;64457;51.976;9.834;2023-02-11T01:16:07;9.50;94.80
75824;DHT22;64457;51.976;9.834;2023-02-11T01:18:36;9.50;94.60
75824;DHT22;64457;51.976;9.834;2023-02-11T01:21:04;9.70;94.30
75824;DHT22;64457;51.976;9.834;2023-02-11T01:23:33;9.80;94.00
75824;DHT22;64457;51.976;9.834;2023-02-11T01:26:01;9.60;94.30
75824;DHT22;64457;51.976;9.834;2023-02-11T01:28:29;9.50;94.60
75824;DHT22;64457;51.976;9.834;2023-02-11T01:30:57;9.50;94.90
75824;DHT22;64457;51.976;9.834;2023-02-11T01:33:26;9.60;94.90
75824;DHT22;64457;51.976;9.834;2023-02-11T01:35:54;9.50;94.50
75824;DHT22;64457;51.976;9.834;2023-02-11T01:38:23;9.60;94.70
75824;DHT22;64457;51.976;9.834;2023-02-11T01:40:54;9.50;94.90
75824;DHT22;64457;51.976;9.834;2023-02-11T01:43:22;9.40;95.30
75824;DHT22;64457;51.976;9.834;2023-02-11T01:48:58;9.40;95.50
75824;DHT22;64457;51.976;9.834;2023-02-11T01:51:32;9.40;95.00
75824;DHT22;64457;51.976;9.834;2023-02-11T01:54:03;9.30;95.60
75824;DHT22;64457;51.976;9.834;2023-02-11T01:56:52;9.00;96.00
75824;DHT22;64457;51.976;9.834;2023-02-11T01:59:43;9.10;96.70
75824;DHT22;64457;51.976;9.834;2023-02-11T02:02:16;8.90;97.00
75824;DHT22;64457;51.976;9.834;2023-02-11T02:04:52;9.00;96.80
75824;DHT22;64457;51.976;9.834;2023-02-11T02:07:28;9.10;97.10
75824;DHT22;64457;51.976;9.834;2023-02-11T02:10:02;9.40;97.00
75824;DHT22;64457;51.976;9.834;2023-02-11T02:12:36;9.40;96.40
75824;DHT22;64457;51.976;9.834;2023-02-11T02:15:37;9.40;96.20
75824;DHT22;64457;51.976;9.834;2023-02-11T02:18:16;9.40;96.60
75824;DHT22;64457;51.976;9.834;2023-02-11T02:21:19;9.30;96.40
75824;DHT22;64457;51.976;9.834;2023-02-11T02:24:37;9.10;97.10
75824;DHT22;64457;51.976;9.834;2023-02-11T02:27:39;9.00;97.20
75824;DHT22;64457;51.976;9.834;2023-02-11T02:33:32;9.00;97.40
75824;DHT22;64457;51.976;9.834;2023-02-11T02:36:11;8.90;97.60
75824;DHT22;64457;51.976;9.834;2023-02-11T02:38:47;8.80;97.40
75824;DHT22;64457;51.976;9.834;2023-02-11T02:41:21;9.00;97.40
75824;DHT22;64457;51.976;9.834;2023-02-11T02:43:51;8.90;97.50
75824;DHT22;64457;51.976;9.834;2023-02-11T02:46:21;8.70;98.00
75824;DHT22;64457;51.976;9.834;2023-02-11T02:48:53;8.80;97.80
75824;DHT22;64457;51.976;9.834;2023-02-11T02:51:37;9.10;97.40
75824;DHT22;64457;51.976;9.834;2023-02-11T02:57:33;9.00;97.70
75824;DHT22;64457;51.976;9.834;2023-02-11T03:00:16;9.00;97.40
75824;DHT22;64457;51.976;9.834;2023-02-11T03:03:12;9.00;97.60
75824;DHT22;64457;51.976;9.834;2023-02-11T03:05:52;8.90;97.60
75824;DHT22;64457;51.976;9.834;2023-02-11T03:08:28;8.80;98.30
75824;DHT22;64457;51.976;9.834;2023-02-11T03:10:58;9.00;98.00
75824;DHT22;64457;51.976;9.834;2023-02-11T03:13:30;9.20;97.60
75824;DHT22;64457;51.976;9.834;2023-02-11T03:16:06;9.30;97.60
75824;DHT22;64457;51.976;9.834;2023-02-11T03:18:38;9.30;97.40
75824;DHT22;64457;51.976;9.834;2023-02-11T03:21:09;8.70;98.50
75824;DHT22;64457;51.976;9.834;2023-02-11T03:23:40;8.70;98.80
75824;DHT22;64457;51.976;9.834;2023-02-11T03:26:13;8.70;98.80
75824;DHT22;64457;51.976;9.834;2023-02-11T03:28:50;8.50;99.30
75824;DHT22;64457;51.976;9.834;2023-02-11T03:31:26;8.80;99.00
75824;DHT22;64457;51.976;9.834;2023-02-11T03:33:59;8.80;99.00
75824;DHT22;64457;51.976;9.834;2023-02-11T03:36:34;8.70;99.10
75824;DHT22;64457;51.976;9.834;2023-02-11T03:39:07;8.70;99.10
75824;DHT22;64457;51.976;9.834;2023-02-11T03:41:35;8.60;99.40
75824;DHT22;64457;51.976;9.834;2023-02-11T03:44:05;8.90;99.10
75824;DHT22;64457;51.976;9.834;2023-02-11T03:46:38;9.10;98.70
75824;DHT22;64457;51.976;9.834;2023-02-11T03:49:09;9.10;98.70
75824;DHT22;64457;51.976;9.834;2023-02-11T03:51:39;9.10;98.50
75824;DHT22;64457;51.976;9.834;2023-02-11T03:54:10;9.00;98.80
75824;DHT22;64457;51.976;9.834;2023-02-11T03:56:44;8.90;99.40
75824;DHT22;64457;51.976;9.834;2023-02-11T03:59:15;9.10;99.10
75824;DHT22;64457;51.976;9.834;2023-02-11T04:01:43;8.70;99.20
75824;DHT22;64457;51.976;9.834;2023-02-11T04:04:11;8.90;99.40
75824;DHT22;64457;51.976;9.834;2023-02-11T04:06:40;9.10;99.00
75824;DHT22;64457;51.976;9.834;2023-02-11T04:09:08;9.30;98.50
75824;DHT22;64457;51.976;9.834;2023-02-11T04:11:35;9.40;98.70
75824;DHT22;64457;51.976;9.834;2023-02-11T04:14:03;9.40;98.70
75824;DHT22;64457;51.976;9.834;2023-02-11T04:16:31;9.50;98.40
75824;DHT22;64457;51.976;9.834;2023-02-11T04:18:58;9.20;98.70
75824;DHT22;64457;51.976;9.834;2023-02-11T04:21:26;9.30;99.20
75824;DHT22;64457;51.976;9.834;2023-02-11T04:23:55;9.20;98.70
75824;DHT22;64457;51.976;9.834;2023-02-11T04:26:23;9.30;98.80
75824;DHT22;64457;51.976;9.834;2023-02-11T04:28:50;9.30;98.80
75824;DHT22;64457;51.976;9.834;2023-02-11T04:31:18;9.00;99.50
75824;DHT22;64457;51.976;9.834;2023-02-11T04:33:45;8.90;99.90
75824;DHT22;64457;51.976;9.834;2023-02-11T04:36:12;9.00;99.50
75824;DHT22;64457;51.976;9.834;2023-02-11T04:38:40;9.00;99.30
75824;DHT22;64457;51.976;9.834;2023-02-11T04:41:09;8.70;99.50
75824;DHT22;64457;51.976;9.834;2023-02-11T04:43:36;8.60;99.90
75824;DHT22;64457;51.976;9.834;2023-02-11T04:46:04;8.40;99.90
75824;DHT22;64457;51.976;9.834;2023-02-11T04:48:31;8.50;99.90
75824;DHT22;64457;51.976;9.834;2023-02-11T04:51:01;8.30;99.90
75824;DHT22;64457;51.976;9.834;2023-02-11T04:53:28;8.40;99.90
75824;DHT22;64457;51.976;9.834;2023-02-11T04:55:57;8.20;99.90
75824;DHT22;64457;51.976;9.834;2023-02-11T04:58:26;8.10;99.90
75824;DHT22;64457;51.976;9.834;2023-02-11T05:00:54;8.40;99.90
75824;DHT22;64457;51.976;9.834;2023-02-11T05:03:22;8.80;99.90
75824;DHT22;64457;51.976;9.834;2023-02-11T05:06:01;8.90;99.90
75824;DHT22;64457;51.976;9.834;2023-02-11T05:08:30;9.10;99.90
75824;DHT22;64457;51.976;9.834;2023-02-11T05:10:57;9.00;99.90
75824;DHT22;64457;51.976;9.834;2023-02-11T05:13:28;8.90;99.90
75824;DHT22;64457;51.976;9.834;2023-02-11T05:15:56;9.00;99.90
75824;DHT22;64457;51.976;9.834;2023-02-11T05:18:23;9.10;99.90
75824;DHT22;64457;51.976;9.834;2023-02-11T05:20:51;9.00;99.90
75824;DHT22;64457;51.976;9.834;2023-02-11T05:23:19;8.80;99.90
75824;DHT22;64457;51.976;9.834;2023-02-11T05:25:46;8.60;99.90
75824;DHT22;64457;51.976;9.834;2023-02-11T05:28:14;8.60;99.90
75824;DHT22;64457;51.976;9.834;2023-02-11T05:30:43;8.60;99.90
75824;DHT22;64457;51.976;9.834;2023-02-11T05:33:10;8.10;99.90
75824;DHT22;64457;51.976;9.834;2023-02-11T05:35:38;7.80;99.90
75824;DHT22;64457;51.976;9.834;2023-02-11T05:38:05;7.90;99.90
75824;DHT22;64457;51.976;9.834;2023-02-11T05:40:32;8.20;99.90
75824;DHT22;64457;51.976;9.834;2023-02-11T05:43:00;8.30;99.90
75824;DHT22;64457;51.976;9.834;2023-02-11T05:45:29;8.40;99.90
75824;DHT22;64457;51.976;9.834;2023-02-11T05:47:58;8.70;99.90
75824;DHT22;64457;51.976;9.834;2023-02-11T05:50:26;8.70;99.90
75824;DHT22;64457;51.976;9.834;2023-02-11T05:52:53;8.60;99.90
75824;DHT22;64457;51.976;9.834;2023-02-11T05:55:21;8.60;99.90
75824;DHT22;64457;51.976;9.834;2023-02-11T05:57:48;8.50;99.90
75824;DHT22;64457;51.976;9.834;2023-02-11T06:00:16;8.70;99.90
75824;DHT22;64457;51.976;9.834;2023-02-11T06:02:44;8.60;99.90
75824;DHT22;64457;51.976;9.834;2023-02-11T06:05:13;8.70;99.90
75824;DHT22;64457;51.976;9.834;2023-02-11T06:07:41;8.80;99.90
75824;DHT22;64457;51.976;9.834;2023-02-11T06:10:09;8.70;99.90
75824;DHT22;64457;51.976;9.834;2023-02-11T06:12:37;8.90;99.90
75824;DHT22;64457;51.976;9.834;2023-02-11T06:15:05;8.80;99.90
75824;DHT22;64457;51.976;9.834;2023-02-11T06:17:33;8.80;99.90
75824;DHT22;64457;51.976;9.834;2023-02-11T06:20:03;8.80;99.90
75824;DHT22;64457;51.976;9.834;2023-02-11T06:22:33;8.60;99.90
75824;DHT22;64457;51.976;9.834;2023-02-11T06:25:01;8.40;99.90
75824;DHT22;64457;51.976;9.834;2023-02-11T06:27:28;8.60;99.90
75824;DHT22;64457;51.976;9.834;2023-02-11T06:29:56;8.60;99.90
75824;DHT22;64457;51.976;9.834;2023-02-11T06:32:23;8.70;99.90
75824;DHT22;64457;51.976;9.834;2023-02-11T06:34:51;8.50;99.90
75824;DHT22;64457;51.976;9.834;2023-02-11T06:37:18;8.50;99.90
75824;DHT22;64457;51.976;9.834;2023-02-11T06:39:47;8.40;99.90
75824;DHT22;64457;51.976;9.834;2023-02-11T06:42:15;8.50;99.90
75824;DHT22;64457;51.976;9.834;2023-02-11T06:44:42;8.60;99.90
75824;DHT22;64457;51.976;9.834;2023-02-11T06:47:10;8.50;99.90
75824;DHT22;64457;51.976;9.834;2023-02-11T06:49:37;8.80;99.90
75824;DHT22;64457;51.976;9.834;2023-02-11T06:52:05;8.70;99.90
75824;DHT22;64457;51.976;9.834;2023-02-11T06:54:32;8.70;99.90
75824;DHT22;64457;51.976;9.834;2023-02-11T06:57:01;8.60;99.90
75824;DHT22;64457;51.976;9.834;2023-02-11T06:59:29;8.60;99.90
75824;DHT22;64457;51.976;9.834;2023-02-11T07:01:56;8.50;99.90
75824;DHT22;64457;51.976;9.834;2023-02-11T07:04:24;8.40;99.90
75824;DHT22;64457;51.976;9.834;2023-02-11T07:06:51;8.40;99.90
75824;DHT22;64457;51.976;9.834;2023-02-11T07:09:19;8.60;99.90
75824;DHT22;64457;51.976;9.834;2023-02-11T07:11:46;8.70;99.90
75824;DHT22;64457;51.976;9.834;2023-02-11T07:14:15;8.70;99.90
75824;DHT22;64457;51.976;9.834;2023-02-11T07:16:43;8.70;99.90
75824;DHT22;64457;51.976;9.834;2023-02-11T07:19:10;8.60;99.90
75824;DHT22;64457;51.976;9.834;2023-02-11T07:21:37;8.80;99.90
75824;DHT22;64457;51.976;9.834;2023-02-11T07:24:06;8.70;99.90
75824;DHT22;64457;51.976;9.834;2023-02-11T07:26:34;8.60;99.90
75824;DHT22;64457;51.976;9.834;2023-02-11T07:29:02;8.70;99.90
75824;DHT22;64457;51.976;9.834;2023-02-11T07:31:31;8.70;99.90
75824;DHT22;64457;51.976;9.834;2023-02-11T07:34:00;8.40;99.90
75824;DHT22;64457;51.976;9.834;2023-02-11T07:36:29;8.50;99.90
75824;DHT22;64457;51.976;9.834;2023-02-11T07:38:58;8.60;99.90
75824;DHT22;64457;51.976;9.834;2023-02-11T07:41:26;8.70;99.90
75824;DHT22;64457;51.976;9.834;2023-02-11T07:43:53;8.80;99.90
75824;DHT22;64457;51.976;9.834;2023-02-11T07:46:22;8.90;99.90
75824;DHT22;64457;51.976;9.834;2023-02-11T07:48:52;9.00;99.90
75824;DHT22;64457;51.976;9.834;2023-02-11T07:51:21;9.30;99.90
75824;DHT22;64457;51.976;9.834;2023-02-11T07:53:50;9.30;99.90
75824;DHT22;64457;51.976;9.834;2023-02-11T07:56:19;9.20;99.90
75824;DHT22;64457;51.976;9.834;2023-02-11T07:58:47;9.10;99.90
75824;DHT22;64457;51.976;9.834;2023-02-11T08:01:17;8.90;99.90
75824;DHT22;64457;51.976;9.834;2023-02-11T08:03:47;8.90;99.90
75824;DHT22;64457;51.976;9.834;2023-02-11T08:06:17;8.90;99.90
75824;DHT22;64457;51.976;9.834;2023-02-11T08:08:46;9.10;99.90
75824;DHT22;64457;51.976;9.834;2023-02-11T08:11:16;9.00;99.90
75824;DHT22;64457;51.976;9.834;2023-02-11T08:13:45;9.10;99.90
75824;DHT22;64457;51.976;9.834;2023-02-11T08:16:17;8.90;99.90
75824;DHT22;64457;51.976;9.834;2023-02-11T08:18:46;8.80;99.90
75824;DHT22;64457;51.976;9.834;2023-02-11T08:21:16;8.90;99.90
75824;DHT22;64457;51.976;9.834;2023-02-11T08:23:44;9.00;99.90
75824;DHT22;64457;51.976;9.834;2023-02-11T08:26:14;9.20;99.90
75824;DHT22;64457;51.976;9.834;2023-02-11T08:28:43;9.50;99.90
75824;DHT22;64457;51.976;9.834;2023-02-11T08:31:13;9.50;99.90
75824;DHT22;64457;51.976;9.834;2023-02-11T08:33:43;9.80;99.90
75824;DHT22;64457;51.976;9.834;2023-02-11T08:36:12;9.50;99.90
75824;DHT22;64457;51.976;9.834;2023-02-11T08:38:42;9.50;99.90
75824;DHT22;64457;51.976;9.834;2023-02-11T08:41:11;9.40;99.90
75824;DHT22;64457;51.976;9.834;2023-02-11T08:43:40;9.50;99.90
75824;DHT22;64457;51.976;9.834;2023-02-11T08:46:12;9.50;99.90
75824;DHT22;64457;51.976;9.834;2023-02-11T08:48:40;9.40;99.90
75824;DHT22;64457;51.976;9.834;2023-02-11T08:51:09;9.20;99.90
75824;DHT22;64457;51.976;9.834;2023-02-11T08:53:39;9.30;99.90
75824;DHT22;64457;51.976;9.834;2023-02-11T08:56:09;9.10;99.90
75824;DHT22;64457;51.976;9.834;2023-02-11T08:58:37;9.40;99.90
75824;DHT22;64457;51.976;9.834;2023-02-11T09:01:08;9.20;99.90
75824;DHT22;64457;51.976;9.834;2023-02-11T09:03:36;9.00;99.90
75824;DHT22;64457;51.976;9.834;2023-02-11T09:06:05;9.00;99.90
75824;DHT22;64457;51.976;9.834;2023-02-11T09:08:33;9.20;99.90
75824;DHT22;64457;51.976;9.834;2023-02-11T09:11:02;9.40;99.90
75824;DHT22;64457;51.976;9.834;2023-02-11T09:13:32;9.30;99.90
75824;DHT22;64457;51.976;9.834;2023-02-11T09:16:01;9.50;99.90
75824;DHT22;64457;51.976;9.834;2023-02-11T09:18:30;9.60;99.90
75824;DHT22;64457;51.976;9.834;2023-02-11T09:21:01;9.60;99.90
75824;DHT22;64457;51.976;9.834;2023-02-11T09:23:30;9.70;99.90
75824;DHT22;64457;51.976;9.834;2023-02-11T09:25:59;9.80;99.90
75824;DHT22;64457;51.976;9.834;2023-02-11T09:28:27;9.80;99.90
75824;DHT22;64457;51.976;9.834;2023-02-11T09:30:55;10.00;99.30
75824;DHT22;64457;51.976;9.834;2023-02-11T09:33:23;9.80;99.90
75824;DHT22;64457;51.976;9.834;2023-02-11T09:35:50;9.60;99.90
75824;DHT22;64457;51.976;9.834;2023-02-11T09:38:18;9.80;99.90
75824;DHT22;64457;51.976;9.834;2023-02-11T09:40:45;9.70;99.90
75824;DHT22;64457;51.976;9.834;2023-02-11T09:43:17;9.70;99.90
75824;DHT22;64457;51.976;9.834;2023-02-11T09:45:47;9.80;99.90
75824;DHT22;64457;51.976;9.834;2023-02-11T09:48:19;9.70;99.90
75824;DHT22;64457;51.976;9.834;2023-02-11T09:50:50;9.80;99.90
75824;DHT22;64457;51.976;9.834;2023-02-11T09:53:23;9.70;99.90
75824;DHT22;64457;51.976;9.834;2023-02-11T09:55:53;10.00;99.50
75824;DHT22;64457;51.976;9.834;2023-02-11T09:58:25;9.90;99.90
75824;DHT22;64457;51.976;9.834;2023-02-11T10:01:01;9.90;99.90
75824;DHT22;64457;51.976;9.834;2023-02-11T10:03:58;9.80;99.90
75824;DHT22;64457;51.976;9.834;2023-02-11T10:06:39;10.00;99.70
75824;DHT22;64457;51.976;9.834;2023-02-11T10:12:19;10.30;98.90
75824;DHT22;64457;51.976;9.834;2023-02-11T10:15:12;10.10;99.20
75824;DHT22;64457;51.976;9.834;2023-02-11T10:17:53;10.20;99.30
75824;DHT22;64457;51.976;9.834;2023-02-11T10:20:33;10.30;99.10
75824;DHT22;64457;51.976;9.834;2023-02-11T10:23:09;10.30;99.00
75824;DHT22;64457;51.976;9.834;2023-02-11T10:25:42;10.20;99.10
75824;DHT22;64457;51.976;9.834;2023-02-11T10:28:13;10.20;99.20
75824;DHT22;64457;51.976;9.834;2023-02-11T10:30:44;10.20;99.30
75824;DHT22;64457;51.976;9.834;2023-02-11T10:33:23;10.50;99.30
75824;DHT22;64457;51.976;9.834;2023-02-11T10:35:54;10.50;99.10
75824;DHT22;64457;51.976;9.834;2023-02-11T10:38:22;10.50;98.80
75824;DHT22;64457;51.976;9.834;2023-02-11T10:40:49;10.50;99.10
75824;DHT22;64457;51.976;9.834;2023-02-11T10:43:20;10.50;99.20
75824;DHT22;64457;51.976;9.834;2023-02-11T10:45:52;10.30;99.30
75824;DHT22;64457;51.976;9.834;2023-02-11T10:48:39;10.20;99.30
75824;DHT22;64457;51.976;9.834;2023-02-11T10:51:17;10.10;99.90
75824;DHT22;64457;51.976;9.834;2023-02-11T10:53:47;10.30;99.80
75824;DHT22;64457;51.976;9.834;2023-02-11T10:56:22;10.20;99.70
75824;DHT22;64457;51.976;9.834;2023-02-11T10:58:57;10.20;99.90
75824;DHT22;64457;51.976;9.834;2023-02-11T11:01:44;10.20;99.90
75824;DHT22;64457;51.976;9.834;2023-02-11T11:04:36;10.00;99.90
75824;DHT22;64457;51.976;9.834;2023-02-11T11:07:13;10.10;99.90
75824;DHT22;64457;51.976;9.834;2023-02-11T11:09:49;10.10;99.90
75824;DHT22;64457;51.976;9.834;2023-02-11T11:12:27;10.20;99.90
75824;DHT22;64457;51.976;9.834;2023-02-11T11:15:01;10.20;99.90
75824;DHT22;64457;51.976;9.834;2023-02-11T11:17:41;10.40;99.90
75824;DHT22;64457;51.976;9.834;2023-02-11T11:20:22;10.40;99.90
75824;DHT22;64457;51.976;9.834;2023-02-11T11:23:08;10.30;99.90
75824;DHT22;64457;51.976;9.834;2023-02-11T11:25:42;10.40;99.90
75824;DHT22;64457;51.976;9.834;2023-02-11T11:28:21;10.60;99.90
75824;DHT22;64457;51.976;9.834;2023-02-11T11:30:52;10.60;99.90
75824;DHT22;64457;51.976;9.834;2023-02-11T11:33:23;10.80;99.90
75824;DHT22;64457;51.976;9.834;2023-02-11T11:35:58;10.50;99.90
75824;DHT22;64457;51.976;9.834;2023-02-11T11:38:29;10.60;99.90
75824;DHT22;64457;51.976;9.834;2023-02-11T11:41:19;10.60;99.90
75824;DHT22;64457;51.976;9.834;2023-02-11T11:44:01;10.40;99.90
75824;DHT22;64457;51.976;9.834;2023-02-11T11:46:33;10.40;99.90
75824;DHT22;64457;51.976;9.834;2023-02-11T11:49:13;10.70;99.90
75824;DHT22;64457;51.976;9.834;2023-02-11T11:51:54;10.50;99.90
75824;DHT22;64457;51.976;9.834;2023-02-11T11:54:27;10.40;99.90
75824;DHT22;64457;51.976;9.834;2023-02-11T11:56:58;10.30;99.90
75824;DHT22;64457;51.976;9.834;2023-02-11T11:59:29;10.40;99.90
75824;DHT22;64457;51.976;9.834;2023-02-11T12:02:14;10.40;99.90
75824;DHT22;64457;51.976;9.834;2023-02-11T12:05:00;10.30;99.90
75824;DHT22;64457;51.976;9.834;2023-02-11T12:10:37;10.50;99.90
75824;DHT22;64457;51.976;9.834;2023-02-11T12:13:25;10.60;99.90
75824;DHT22;64457;51.976;9.834;2023-02-11T12:16:11;10.70;99.90
75824;DHT22;64457;51.976;9.834;2023-02-11T12:19:12;10.80;99.90
75824;DHT22;64457;51.976;9.834;2023-02-11T12:22:08;10.80;99.90
75824;DHT22;64457;51.976;9.834;2023-02-11T12:24:50;10.90;99.90
75824;DHT22;64457;51.976;9.834;2023-02-11T12:27:36;11.00;99.90
75824;DHT22;64457;51.976;9.834;2023-02-11T12:30:18;11.10;99.90
75824;DHT22;64457;51.976;9.834;2023-02-11T12:33:01;11.30;99.70
75824;DHT22;64457;51.976;9.834;2023-02-11T12:35:44;11.40;99.50
75824;DHT22;64457;51.976;9.834;2023-02-11T12:38:50;11.40;99.60
75824;DHT22;64457;51.976;9.834;2023-02-11T12:41:36;11.10;99.90
75824;DHT22;64457;51.976;9.834;2023-02-11T12:44:39;11.00;99.90
75824;DHT22;64457;51.976;9.834;2023-02-11T12:47:20;11.00;99.90
75824;DHT22;64457;51.976;9.834;2023-02-11T12:50:08;11.00;99.90
75824;DHT22;64457;51.976;9.834;2023-02-11T12:52:50;11.10;99.90
75824;DHT22;64457;51.976;9.834;2023-02-11T12:55:28;11.30;99.90
75824;DHT22;64457;51.976;9.834;2023-02-11T12:57:58;11.20;99.70
75824;DHT22;64457;51.976;9.834;2023-02-11T13:00:33;11.10;99.70
75824;DHT22;64457;51.976;9.834;2023-02-11T13:03:10;11.00;99.90
75824;DHT22;64457;51.976;9.834;2023-02-11T13:05:42;11.10;99.90
75824;DHT22;64457;51.976;9.834;2023-02-11T13:08:16;11.50;99.90
75824;DHT22;64457;51.976;9.834;2023-02-11T13:10:50;11.60;99.30
75824;DHT22;64457;51.976;9.834;2023-02-11T13:13:22;11.50;99.60
75824;DHT22;64457;51.976;9.834;2023-02-11T13:15:57;11.20;99.90
75824;DHT22;64457;51.976;9.834;2023-02-11T13:18:38;11.30;99.90
75824;DHT22;64457;51.976;9.834;2023-02-11T13:21:28;11.10;99.90
75824;DHT22;64457;51.976;9.834;2023-02-11T13:24:08;11.40;99.90
75824;DHT22;64457;51.976;9.834;2023-02-11T13:26:55;11.50;99.90
75824;DHT22;64457;51.976;9.834;2023-02-11T13:29:35;11.30;99.90
75824;DHT22;64457;51.976;9.834;2023-02-11T13:32:13;11.40;99.90
75824;DHT22;64457;51.976;9.834;2023-02-11T13:34:57;11.50;99.90
75824;DHT22;64457;51.976;9.834;2023-02-11T13:37:29;11.60;99.90
75824;DHT22;64457;51.976;9.834;2023-02-11T13:40:00;11.50;99.90
75824;DHT22;64457;51.976;9.834;2023-02-11T13:42:31;11.50;99.90
75824;DHT22;64457;51.976;9.834;2023-02-11T13:45:00;11.50;99.80
75824;DHT22;64457;51.976;9.834;2023-02-11T13:47:31;11.50;99.90
75824;DHT22;64457;51.976;9.834;2023-02-11T13:50:03;11.60;99.70
75824;DHT22;64457;51.976;9.834;2023-02-11T13:52:35;11.40;99.70
75824;DHT22;64457;51.976;9.834;2023-02-11T13:55:13;11.30;99.90
75824;DHT22;64457;51.976;9.834;2023-02-11T13:58:17;11.00;99.90
75824;DHT22;64457;51.976;9.834;2023-02-11T14:00:49;10.90;99.90
75824;DHT22;64457;51.976;9.834;2023-02-11T14:03:27;11.00;99.90
75824;DHT22;64457;51.976;9.834;2023-02-11T14:06:27;11.00;99.90
75824;DHT22;64457;51.976;9.834;2023-02-11T14:09:35;10.90;99.90
75824;DHT22;64457;51.976;9.834;2023-02-11T14:12:30;11.10;99.90
75824;DHT22;64457;51.976;9.834;2023-02-11T14:15:21;11.20;99.90
75824;DHT22;64457;51.976;9.834;2023-02-11T14:17:52;11.10;99.90
75824;DHT22;64457;51.976;9.834;2023-02-11T14:20:41;11.20;99.90
75824;DHT22;64457;51.976;9.834;2023-02-11T14:23:24;11.10;99.90
75824;DHT22;64457;51.976;9.834;2023-02-11T14:29:11;11.10;99.90
75824;DHT22;64457;51.976;9.834;2023-02-11T14:31:47;11.40;99.90
75824;DHT22;64457;51.976;9.834;2023-02-11T14:34:36;11.50;99.90
75824;DHT22;64457;51.976;9.834;2023-02-11T14:37:32;11.50;99.90
75824;DHT22;64457;51.976;9.834;2023-02-11T14:40:10;11.20;99.90
75824;DHT22;64457;51.976;9.834;2023-02-11T14:42:45;11.10;99.90
75824;DHT22;64457;51.976;9.834;2023-02-11T14:45:17;11.30;99.90
75824;DHT22;64457;51.976;9.834;2023-02-11T14:47:50;11.30;99.90
75824;DHT22;64457;51.976;9.834;2023-02-11T14:50:24;11.40;99.90
75824;DHT22;64457;51.976;9.834;2023-02-11T14:52:58;11.30;99.90
75824;DHT22;64457;51.976;9.834;2023-02-11T14:55:29;11.20;99.90
75824;DHT22;64457;51.976;9.834;2023-02-11T14:58:07;11.30;99.90
75824;DHT22;64457;51.976;9.834;2023-02-11T15:00:51;11.60;99.90
75824;DHT22;64457;51.976;9.834;2023-02-11T15:03:25;11.60;99.90
75824;DHT22;64457;51.976;9.834;2023-02-11T15:06:05;11.60;99.90
75824;DHT22;64457;51.976;9.834;2023-02-11T15:08:43;11.50;99.90
75824;DHT22;64457;51.976;9.834;2023-02-11T15:11:17;11.40;99.90
75824;DHT22;64457;51.976;9.834;2023-02-11T15:13:47;11.30;99.90
75824;DHT22;64457;51.976;9.834;2023-02-11T15:16:19;11.10;99.90
75824;DHT22;64457;51.976;9.834;2023-02-11T15:18:49;11.30;99.90
75824;DHT22;64457;51.976;9.834;2023-02-11T15:21:20;11.30;99.90
75824;DHT22;64457;51.976;9.834;2023-02-11T15:23:59;11.20;99.90
75824;DHT22;64457;51.976;9.834;2023-02-11T15:26:27;11.30;99.90
75824;DHT22;64457;51.976;9.834;2023-02-11T15:28:55;11.40;99.90
75824;DHT22;64457;51.976;9.834;2023-02-11T15:31:25;11.50;99.90
75824;DHT22;64457;51.976;9.834;2023-02-11T15:33:54;11.30;99.90
75824;DHT22;64457;51.976;9.834;2023-02-11T15:36:23;11.10;99.90
75824;DHT22;64457;51.976;9.834;2023-02-11T15:39:29;11.20;99.90
75824;DHT22;64457;51.976;9.834;2023-02-11T15:42:20;11.20;99.90
75824;DHT22;64457;51.976;9.834;2023-02-11T15:47:34;11.20;99.90
75824;DHT22;64457;51.976;9.834;2023-02-11T15:50:02;11.20;99.90
75824;DHT22;64457;51.976;9.834;2023-02-11T15:52:31;11.10;99.90
75824;DHT22;64457;51.976;9.834;2023-02-11T15:55:01;11.10;99.90
75824;DHT22;64457;51.976;9.834;2023-02-11T15:57:29;11.20;99.90
75824;DHT22;64457;51.976;9.834;2023-02-11T15:59:57;11.20;99.90
75824;DHT22;64457;51.976;9.834;2023-02-11T16:02:31;11.10;99.90
75824;DHT22;64457;51.976;9.834;2023-02-11T16:05:03;11.10;99.90
75824;DHT22;64457;51.976;9.834;2023-02-11T16:07:41;11.10;99.90
75824;DHT22;64457;51.976;9.834;2023-02-11T16:10:21;10.90;99.90
75824;DHT22;64457;51.976;9.834;2023-02-11T16:12:51;10.90;99.90
75824;DHT22;64457;51.976;9.834;2023-02-11T16:15:42;11.10;99.90
75824;DHT22;64457;51.976;9.834;2023-02-11T16:18:27;10.90;99.90
75824;DHT22;64457;51.976;9.834;2023-02-11T16:20:57;11.00;99.90
75824;DHT22;64457;51.976;9.834;2023-02-11T16:23:28;11.10;99.90
75824;DHT22;64457;51.976;9.834;2023-02-11T16:26:02;11.00;99.90
75824;DHT22;64457;51.976;9.834;2023-02-11T16:28:34;10.90;99.90
75824;DHT22;64457;51.976;9.834;2023-02-11T16:31:03;10.70;99.90
75824;DHT22;64457;51.976;9.834;2023-02-11T16:33:31;10.60;99.90
75824;DHT22;64457;51.976;9.834;2023-02-11T16:35:58;10.70;99.90
75824;DHT22;64457;51.976;9.834;2023-02-11T16:38:28;10.90;99.90
75824;DHT22;64457;51.976;9.834;2023-02-11T16:40:56;10.90;99.90